Airfield :
LOGIN :

Register | Disclaimer

   EN    FR    IT 

 










Legend :    VFR   Marginal VFR   IFR   Intensive IFR   Very Intensive IFR
Visi :
Ceiling :
>= 8 km
>= 3000ft
5 to 8 km
1000 to 3000 ft
1500m to 5 km
500 to 1000 ft
800 to 1500m
200 to 500 ft
< 800m
< 200 ft
Symbols :   Thunderstorms  Fog  Heavy snow  Heavy precipitations  Wind > 20 kt
SIGMETs :     Misc.  Thunderstorms  Icing  Turbulence  Mountain Waves  Volcanic Ashes







- Airport Elevation : 359 ft
- IATA code : BVA
- Download approach charts


LFOB - Beauvais

CURRENT METAR :
  • 201500Z AUTO VRB06KT CAVOK 20/09 Q1025 NOSIG

EXPIRED METARs :
  • 201430Z AUTO 24006KT 210V290 CAVOK 20/10 Q1025 NOSIG
  • 201400Z AUTO 28009KT 250V310 9999 FEW045 BKN058 19/10 Q1025 NOSIG
  • 201330Z AUTO 26006KT 230V290 9999 FEW046 BKN054 19/10 Q1025 NOSIG
  • 201300Z AUTO 27007KT 240V300 9999 FEW043 BKN056 20/10 Q1026 NOSIG
  • 201230Z AUTO 25005KT 200V340 CAVOK 20/10 Q1026 NOSIG

TAF TAF LFOB
Valid from the 20 at 12:00 until the 21 at 12:00 UTC


201100Z 2012/2112 28010KT 9999 SCT040
BECMG 2017/2019 VRB02KT
BECMG 2106/2108 OVC013
ATIS : +33 3 44 11 49 28
No reported NOTAMs for that airfield.



MET'MAP, your aeronautical weather chart ! - Copyright ORBIFLY December 2007 - Disclaimer

ORBIFLY MET'MAP TEAM :

Programming & Development : Alexandra Zaïnal
Concept & Development : Baudouin d'Aumeries
Co-Development & Prog : Marc-Olivier Méhu
Technical & hardware support : Manuel Goepfert

Contact : metmap@orbifly.com




SOURCES & CREDITS :

   NOAA